Adelina D — MNRP6 — position and weather

sailwx.info

Track history (hours):
 
Tides and Currents Weather Stations Pressure Air Temp Water Temp Dewpoint Dewpoint Depression Visibility Wind Speed Wind Dir Waves Ship Positions

Adelina D

Last reported at 2018-Feb-24 03:30 UTC. Time now 2018-Feb-24 03:43 UTC.
Position N 54°55' E 018°33'.

Length 166 m; draft 7.1 m.

Type: Cargo ship. MMSI: 235011610.

Date/timePositionNaut miles runAvg speedWind from/ knotsBaromVisibWave heightAir tempDewpointWater temp
2018-Feb-24 03:30N 54°55' E 018°33'5 9.6
2018-Feb-24 03:00N 54°55' E 018°24'5 9.7
2018-Feb-24 02:30N 54°55' E 018°16'4 9.2
2018-Feb-24 02:01N 54°55' E 018°08'5 9.7
2018-Feb-24 01:27N 54°55' E 017°59'16511.2
2018-Feb-23 10:42N 55°05' E 013°12'312.2
2018-Feb-23 10:27N 55°07' E 013°08'512.3
2018-Feb-23 10:00N 55°10' E 013°00'612.7
2018-Feb-23 09:30N 55°15' E 012°52'611.5
2018-Feb-23 08:58N 55°17' E 012°42'4 9.2
2018-Feb-23 08:30N 55°20' E 012°38'611.8
2018-Feb-23 08:00N 55°26' E 012°40'611.1
2018-Feb-23 07:30N 55°31' E 012°42'4 7.2
2018-Feb-23 07:00N 55°35' E 012°42'4 7.3
2018-Feb-23 06:30N 55°39' E 012°41'510.2
2018-Feb-23 06:00N 55°44' E 012°41'611.4
2018-Feb-23 05:30N 55°49' E 012°42'611.2
2018-Feb-23 05:00N 55°55' E 012°38'510.8
2018-Feb-23 04:30N 55°60' E 012°40'510.1
2018-Feb-23 04:00N 56°04' E 012°36'5 9.8
2018-Feb-23 03:30N 56°08' E 012°30'510.5
2018-Feb-23 03:00N 56°12' E 012°24'510.5
2018-Feb-23 02:30N 56°17' E 012°23'3910.4
2018-Feb-22 22:44N 56°55' E 012°08'310.9
2018-Feb-22 22:30N 56°58' E 012°06'510.5
2018-Feb-22 22:00N 57°02' E 012°02'510.5
2018-Feb-22 21:30N 57°07' E 011°57'510.9
2018-Feb-22 21:00N 57°12' E 011°53'510.7
2018-Feb-22 20:30N 57°17' E 011°50'510.6
2018-Feb-22 20:00N 57°22' E 011°45'510.3
2018-Feb-22 19:30N 57°26' E 011°41'510.2
2018-Feb-22 19:00N 57°31' E 011°38'510.0
2018-Feb-22 18:30N 57°36' E 011°38'713.5
2018-Feb-22 18:00N 57°40' E 011°48'2 4.0
2018-Feb-22 17:28N 57°41' E 011°52'0 0.0
2018-Feb-22 16:59N 57°41' E 011°52'0 0.0
2018-Feb-22 16:28N 57°41' E 011°52'0 0.0
2018-Feb-22 15:58N 57°41' E 011°52'0 0.0
2018-Feb-22 15:28N 57°41' E 011°52'0 0.0
2018-Feb-22 14:58N 57°41' E 011°52'0 0.0
2018-Feb-22 14:28N 57°41' E 011°52'0 0.0
2018-Feb-22 13:58N 57°41' E 011°52'0 0.0
2018-Feb-22 13:28N 57°41' E 011°52'0 0.0
2018-Feb-22 12:58N 57°41' E 011°52'0 0.0
2018-Feb-22 12:28N 57°41' E 011°52'0 0.0
2018-Feb-22 11:58N 57°41' E 011°52'0 0.0
2018-Feb-22 11:28N 57°41' E 011°52'0 0.0
2018-Feb-22 10:58N 57°41' E 011°52'0 0.0
2018-Feb-22 10:28N 57°41' E 011°52'0 0.0
2018-Feb-22 09:58N 57°41' E 011°52'0 0.0
2018-Feb-22 09:28N 57°41' E 011°52'0 0.0
2018-Feb-22 08:58N 57°41' E 011°52'0 0.0
2018-Feb-22 08:28N 57°41' E 011°52'0 0.0
2018-Feb-22 07:58N 57°41' E 011°52'0 0.0
2018-Feb-22 07:28N 57°41' E 011°52'0 0.0
2018-Feb-22 06:58N 57°41' E 011°52'0 0.0
2018-Feb-22 06:28N 57°41' E 011°52'0 0.0
2018-Feb-22 05:58N 57°41' E 011°52'0 0.0
2018-Feb-22 05:28N 57°41' E 011°52'0 0.1
2018-Feb-22 05:00N 57°41' E 011°52'4 8.1
2018-Feb-22 04:31N 57°39' E 011°45'612.1
2018-Feb-22 04:00N 57°37' E 011°35'510.4
2018-Feb-22 03:30N 57°39' E 011°26'510.8
2018-Feb-22 03:00N 57°42' E 011°18'510.8
2018-Feb-22 02:30N 57°45' E 011°10'611.1
2018-Feb-22 02:00N 57°49' E 011°01'611.1
2018-Feb-22 01:30N 57°52' E 010°53'510.9
2018-Feb-22 01:01N 57°54' E 010°44'611.1
2018-Feb-22 00:28N 57°55' E 010°33'611.5
2018-Feb-21 23:58N 57°54' E 010°22'16211.3
2018-Feb-21 09:39N 56°06' E 006°42'312.1
2018-Feb-21 09:24N 56°03' E 006°40'512.1
2018-Feb-21 09:00N 55°59' E 006°35'612.1
2018-Feb-21 08:29N 55°53' E 006°30'612.1
2018-Feb-21 07:58N 55°48' E 006°25'512.0
2018-Feb-21 07:31N 55°43' E 006°19'612.0
2018-Feb-21 07:00N 55°38' E 006°13'612.2
2018-Feb-21 06:29N 55°33' E 006°07'612.1
2018-Feb-21 06:00N 55°28' E 006°02'612.0
2018-Feb-21 05:29N 55°23' E 005°56'612.1
2018-Feb-21 05:00N 55°18' E 005°51'612.1
2018-Feb-21 04:28N 55°12' E 005°45'612.1
2018-Feb-21 03:58N 55°07' E 005°40'612.0
2018-Feb-21 03:29N 55°02' E 005°34'612.0
2018-Feb-21 03:01N 54°57' E 005°29'712.0
2018-Feb-21 02:28N 54°51' E 005°23'612.0
2018-Feb-21 02:00N 54°47' E 005°18'612.0
2018-Feb-21 01:29N 54°41' E 005°13'612.0
2018-Feb-21 01:00N 54°36' E 005°08'611.8
2018-Feb-21 00:30N 54°31' E 005°03'1412.0
2018-Feb-20 23:23N 54°20' E 004°51'511.8
2018-Feb-20 22:58N 54°16' E 004°47'16011.8
2018-Feb-20 09:22N 52°11' E 001°57'412.0
2018-Feb-20 09:00N 52°08' E 001°53'611.5
2018-Feb-20 08:30N 52°05' E 001°45'612.7
2018-Feb-20 08:00N 52°01' E 001°37'612.3
2018-Feb-20 07:31N 51°56' E 001°30'510.8
2018-Feb-20 07:00N 51°56' E 001°21'3 6.3
2018-Feb-20 06:29N 51°58' E 001°17'0 0.0
2018-Feb-20 05:59N 51°58' E 001°17'0 0.0
2018-Feb-20 05:29N 51°58' E 001°17'0 0.0
2018-Feb-20 04:59N 51°58' E 001°17'0 0.0
2018-Feb-20 04:29N 51°58' E 001°17'0 0.0
2018-Feb-20 03:59N 51°58' E 001°17'0 0.0
2018-Feb-20 03:29N 51°58' E 001°17'0 0.0
2018-Feb-20 02:59N 51°58' E 001°17'0 0.0
2018-Feb-20 02:29N 51°58' E 001°17'0 0.0
2018-Feb-20 01:59N 51°58' E 001°17'0 0.0
2018-Feb-20 01:29N 51°58' E 001°17'0 0.0
2018-Feb-20 00:59N 51°58' E 001°17'0 0.0
2018-Feb-20 00:29N 51°58' E 001°17'0 0.0
2018-Feb-19 23:59N 51°58' E 001°17'0 0.0
2018-Feb-19 23:29N 51°58' E 001°17'0 0.0
2018-Feb-19 22:59N 51°58' E 001°17'0 0.0
2018-Feb-19 22:29N 51°58' E 001°17'0 0.0
2018-Feb-19 21:59N 51°58' E 001°17'0 0.0
2018-Feb-19 21:29N 51°58' E 001°17'0 0.0
2018-Feb-19 20:59N 51°58' E 001°17'0 0.0
2018-Feb-19 20:29N 51°58' E 001°17'0 0.0
2018-Feb-19 19:59N 51°58' E 001°17'0 0.0
2018-Feb-19 19:29N 51°58' E 001°17'0 0.0
2018-Feb-19 18:59N 51°58' E 001°17'0 0.0
2018-Feb-19 18:29N 51°58' E 001°17'0 0.0
2018-Feb-19 17:59N 51°58' E 001°17'0 0.0
2018-Feb-19 17:29N 51°58' E 001°17'0 0.0
2018-Feb-19 16:59N 51°58' E 001°17'0 0.0
2018-Feb-19 16:29N 51°58' E 001°17'0 0.0
2018-Feb-19 15:59N 51°58' E 001°17'0 0.0
2018-Feb-19 15:29N 51°58' E 001°17'0 0.0
2018-Feb-19 14:59N 51°58' E 001°17'0 0.0
2018-Feb-19 14:29N 51°58' E 001°17'0 0.0
2018-Feb-19 13:59N 51°58' E 001°17'0 0.0
2018-Feb-19 13:29N 51°58' E 001°17'0 0.0
2018-Feb-19 12:59N 51°58' E 001°17'0 0.0
2018-Feb-19 12:29N 51°58' E 001°17'0 0.0
2018-Feb-19 11:59N 51°58' E 001°17'0 0.0
2018-Feb-19 11:29N 51°58' E 001°17'0 0.0
2018-Feb-19 10:59N 51°58' E 001°17'0 0.0
2018-Feb-19 10:29N 51°58' E 001°17'0 0.0
2018-Feb-19 09:59N 51°58' E 001°17'0 0.0
2018-Feb-19 09:29N 51°58' E 001°17'0 0.0
2018-Feb-19 08:59N 51°58' E 001°17'0 0.0
2018-Feb-19 08:29N 51°58' E 001°17'0 0.0
2018-Feb-19 07:59N 51°58' E 001°17'0 0.0
2018-Feb-19 07:29N 51°58' E 001°17'0 0.0
2018-Feb-19 06:59N 51°58' E 001°17'0 0.0
2018-Feb-19 06:29N 51°58' E 001°17'0 0.0
2018-Feb-19 05:59N 51°58' E 001°17'0 0.0
2018-Feb-19 05:29N 51°58' E 001°17'0 0.0
2018-Feb-19 04:59N 51°58' E 001°17'0 0.0
2018-Feb-19 04:29N 51°58' E 001°17'0 0.0
2018-Feb-19 03:59N 51°58' E 001°17'0 0.0
2018-Feb-19 03:29N 51°58' E 001°17'0 0.0
2018-Feb-19 02:59N 51°58' E 001°17'0 0.0
2018-Feb-19 02:29N 51°58' E 001°17'0 0.0
2018-Feb-19 01:59N 51°58' E 001°17'0 0.0
2018-Feb-19 01:29N 51°58' E 001°17'0 0.0
2018-Feb-19 00:59N 51°58' E 001°17'0 0.0
2018-Feb-19 00:29N 51°58' E 001°17'0 0.0
2018-Feb-18 23:59N 51°58' E 001°17'0 0.0
2018-Feb-18 23:29N 51°58' E 001°17'0 0.0
2018-Feb-18 22:59N 51°58' E 001°17'0 0.0
2018-Feb-18 22:29N 51°58' E 001°17'0 0.0
2018-Feb-18 21:59N 51°58' E 001°17'0 0.0
2018-Feb-18 21:29N 51°58' E 001°17'0 0.0
2018-Feb-18 20:59N 51°58' E 001°17'0 0.0
2018-Feb-18 20:29N 51°58' E 001°17'0 0.0
2018-Feb-18 19:59N 51°58' E 001°17'0 0.0
2018-Feb-18 19:29N 51°58' E 001°17'0 0.0
2018-Feb-18 18:59N 51°58' E 001°17'0 0.1
2018-Feb-18 18:30N 51°58' E 001°17'1 2.6
2018-Feb-18 18:00N 51°57' E 001°19'4 9.0
2018-Feb-18 17:31N 51°56' E 001°26'611.7
2018-Feb-18 17:00N 51°59' E 001°34'713.8
2018-Feb-18 16:30N 52°04' E 001°42'611.1
2018-Feb-18 16:00N 52°08' E 001°48'611.2
2018-Feb-18 15:30N 52°11' E 001°55'26012.7
2018-Feb-17 19:03N 55°39' E 006°21'113.1
2018-Feb-17 18:58N 55°40' E 006°23'713.4
2018-Feb-17 18:29N 55°46' E 006°29'613.4
2018-Feb-17 18:00N 55°51' E 006°36'713.4
2018-Feb-17 17:30N 55°56' E 006°42'15813.3
2018-Feb-17 05:36N 57°45' E 010°13'112.5
2018-Feb-17 05:30N 57°46' E 010°15'612.8
2018-Feb-17 05:00N 57°47' E 010°27'612.9
2018-Feb-17 04:30N 57°48' E 010°39'612.2
2018-Feb-17 04:00N 57°48' E 010°50'713.1
2018-Feb-17 03:30N 57°43' E 010°59'713.6
2018-Feb-17 03:01N 57°39' E 011°08'713.4
2018-Feb-17 02:31N 57°34' E 011°17'714.6
2018-Feb-17 02:01N 57°29' E 011°27'713.8
2018-Feb-17 01:30N 57°24' E 011°36'713.5
2018-Feb-17 01:00N 57°19' E 011°45'713.4
2018-Feb-17 00:30N 57°14' E 011°52'713.5
2018-Feb-17 00:00N 57°08' E 011°57'4113.5
2018-Feb-16 21:00N 56°29' E 012°19'1213.4
2018-Feb-16 20:07N 56°17' E 012°23'112.4
2018-Feb-16 20:00N 56°16' E 012°24'612.9
2018-Feb-16 19:30N 56°10' E 012°28'612.2
2018-Feb-16 19:00N 56°06' E 012°36'510.0
2018-Feb-16 18:30N 56°01' E 012°40'1 1.5
2018-Feb-16 18:00N 56°02' E 012°42'0 0.0
2018-Feb-16 17:30N 56°02' E 012°42'0 0.0
2018-Feb-16 17:00N 56°02' E 012°42'0 0.0
2018-Feb-16 16:30N 56°02' E 012°42'0 0.0
2018-Feb-16 16:00N 56°02' E 012°42'0 0.0
2018-Feb-16 15:30N 56°02' E 012°42'0 0.0
2018-Feb-16 15:00N 56°02' E 012°42'0 0.0
2018-Feb-16 14:30N 56°02' E 012°42'0 0.0
2018-Feb-16 14:00N 56°02' E 012°42'0 0.0
2018-Feb-16 13:30N 56°02' E 012°42'0 0.0
2018-Feb-16 13:00N 56°02' E 012°42'0 0.0
2018-Feb-16 12:30N 56°02' E 012°42'0 0.0
2018-Feb-16 12:00N 56°02' E 012°42'0 0.0
2018-Feb-16 11:30N 56°02' E 012°42'0 0.0
2018-Feb-16 11:00N 56°02' E 012°42'0 0.0
2018-Feb-16 10:30N 56°02' E 012°42'0 0.0
2018-Feb-16 10:00N 56°02' E 012°42'0 0.0
2018-Feb-16 09:30N 56°02' E 012°42'0 0.0
2018-Feb-16 09:00N 56°02' E 012°42'0 0.0
2018-Feb-16 08:30N 56°02' E 012°42'0 0.0
2018-Feb-16 08:00N 56°02' E 012°42'0 0.0
2018-Feb-16 07:30N 56°02' E 012°42'2 4.7
2018-Feb-16 07:00N 55°59' E 012°42'2 3.1
2018-Feb-16 06:30N 55°58' E 012°44'0 0.1
2018-Feb-16 06:00N 55°58' E 012°44'0 0.1
2018-Feb-16 05:30N 55°58' E 012°44'0 0.0
2018-Feb-16 05:00N 55°58' E 012°44'0 0.1
2018-Feb-16 04:30N 55°58' E 012°44'0 0.0
2018-Feb-16 03:57N 55°58' E 012°44'0 0.3
2018-Feb-16 03:30N 55°58' E 012°44'2 3.8
2018-Feb-16 03:01N 55°56' E 012°44'715.0
2018-Feb-16 02:31N 55°49' E 012°43'714.1
2018-Feb-16 02:00N 55°42' E 012°41'5 9.1
2018-Feb-16 01:30N 55°37' E 012°42'4 8.7
2018-Feb-16 01:00N 55°33' E 012°43'4 8.6
2018-Feb-16 00:30N 55°29' E 012°42'611.0
2018-Feb-16 00:00N 55°23' E 012°41'510.0
2018-Feb-15 23:30N 55°18' E 012°43'510.9
2018-Feb-15 23:00N 55°16' E 012°52'510.2
2018-Feb-15 22:30N 55°16' E 013°01'13 9.9
2018-Feb-15 21:14N 55°15' E 013°23'410.2
2018-Feb-15 20:52N 55°15' E 013°29'1710.0
2018-Feb-15 19:11N 55°14' E 013°59'210.3
2018-Feb-15 18:59N 55°14' E 014°02'610.3
2018-Feb-15 18:21N 55°14' E 014°14'5 9.4
2018-Feb-15 17:47N 55°17' E 014°21'310.0
2018-Feb-15 17:29N 55°20' E 014°24'510.2
2018-Feb-15 17:00N 55°23' E 014°30'610.7
2018-Feb-15 16:28N 55°27' E 014°38'511.1
2018-Feb-15 15:58N 55°30' E 014°46'511.0
2018-Feb-15 15:30N 55°32' E 014°54'510.9
2018-Feb-15 15:00N 55°35' E 015°02'510.8
2018-Feb-15 14:30N 55°38' E 015°10'510.8
2018-Feb-15 14:00N 55°40' E 015°19'510.9
2018-Feb-15 13:30N 55°43' E 015°27'611.1
2018-Feb-15 13:00N 55°46' E 015°35'611.1
2018-Feb-15 12:30N 55°49' E 015°44'611.1
2018-Feb-15 12:00N 55°51' E 015°53'611.0
2018-Feb-15 11:30N 55°54' E 016°01'611.6
2018-Feb-15 11:00N 55°57' E 016°10'611.8
2018-Feb-15 10:30N 56°00' E 016°19'611.7
2018-Feb-15 10:00N 56°03' E 016°28'611.7
2018-Feb-15 09:30N 56°06' E 016°37'611.7
2018-Feb-15 09:00N 56°10' E 016°45'611.5
2018-Feb-15 08:30N 56°15' E 016°49'611.7
2018-Feb-15 08:00N 56°21' E 016°53'22112.3
2018-Feb-14 14:00N 59°40' E 019°52'817.0
2018-Feb-14 13:30N 59°46' E 019°41'916.8
2018-Feb-14 12:59N 59°53' E 019°30'816.8
2018-Feb-14 12:30N 59°59' E 019°20'816.6
2018-Feb-14 12:00N 60°06' E 019°09'815.2
2018-Feb-14 11:30N 60°12' E 019°01'612.2
2018-Feb-14 11:00N 60°18' E 019°00'612.2
2018-Feb-14 10:30N 60°24' E 018°59'612.3
2018-Feb-14 10:00N 60°30' E 018°57'612.3
2018-Feb-14 09:30N 60°35' E 018°48'612.2
2018-Feb-14 08:59N 60°40' E 018°39'  
Track history (hours):
 
Tides and Currents Weather Stations Pressure Air Temp Water Temp Dewpoint Dewpoint Depression Visibility Wind Speed Wind Dir Waves Ship Positions

Adelina D

Last reported at 2018-Feb-24 03:30 UTC. Time now 2018-Feb-24 03:43 UTC.
Position N 54°55' E 018°33'.

Length 166 m; draft 7.1 m.

Type: Cargo ship. MMSI: 235011610.

Date/timePositionNaut miles runAvg speedWind from/ knotsBaromVisibWave heightAir tempDewpointWater temp
2018-Feb-24 03:30N 54°55' E 018°33'5 9.6
2018-Feb-24 03:00N 54°55' E 018°24'5 9.7
2018-Feb-24 02:30N 54°55' E 018°16'4 9.2
2018-Feb-24 02:01N 54°55' E 018°08'5 9.7
2018-Feb-24 01:27N 54°55' E 017°59'16511.2
2018-Feb-23 10:42N 55°05' E 013°12'312.2
2018-Feb-23 10:27N 55°07' E 013°08'512.3
2018-Feb-23 10:00N 55°10' E 013°00'612.7
2018-Feb-23 09:30N 55°15' E 012°52'611.5
2018-Feb-23 08:58N 55°17' E 012°42'4 9.2
2018-Feb-23 08:30N 55°20' E 012°38'611.8
2018-Feb-23 08:00N 55°26' E 012°40'611.1
2018-Feb-23 07:30N 55°31' E 012°42'4 7.2
2018-Feb-23 07:00N 55°35' E 012°42'4 7.3
2018-Feb-23 06:30N 55°39' E 012°41'510.2
2018-Feb-23 06:00N 55°44' E 012°41'611.4
2018-Feb-23 05:30N 55°49' E 012°42'611.2
2018-Feb-23 05:00N 55°55' E 012°38'510.8
2018-Feb-23 04:30N 55°60' E 012°40'510.1
2018-Feb-23 04:00N 56°04' E 012°36'5 9.8
2018-Feb-23 03:30N 56°08' E 012°30'510.5
2018-Feb-23 03:00N 56°12' E 012°24'510.5
2018-Feb-23 02:30N 56°17' E 012°23'3910.4
2018-Feb-22 22:44N 56°55' E 012°08'310.9
2018-Feb-22 22:30N 56°58' E 012°06'510.5
2018-Feb-22 22:00N 57°02' E 012°02'510.5
2018-Feb-22 21:30N 57°07' E 011°57'510.9
2018-Feb-22 21:00N 57°12' E 011°53'510.7
2018-Feb-22 20:30N 57°17' E 011°50'510.6
2018-Feb-22 20:00N 57°22' E 011°45'510.3
2018-Feb-22 19:30N 57°26' E 011°41'510.2
2018-Feb-22 19:00N 57°31' E 011°38'510.0
2018-Feb-22 18:30N 57°36' E 011°38'713.5
2018-Feb-22 18:00N 57°40' E 011°48'2 4.0
2018-Feb-22 17:28N 57°41' E 011°52'0 0.0
2018-Feb-22 16:59N 57°41' E 011°52'0 0.0
2018-Feb-22 16:28N 57°41' E 011°52'0 0.0
2018-Feb-22 15:58N 57°41' E 011°52'0 0.0
2018-Feb-22 15:28N 57°41' E 011°52'0 0.0
2018-Feb-22 14:58N 57°41' E 011°52'0 0.0
2018-Feb-22 14:28N 57°41' E 011°52'0 0.0
2018-Feb-22 13:58N 57°41' E 011°52'0 0.0
2018-Feb-22 13:28N 57°41' E 011°52'0 0.0
2018-Feb-22 12:58N 57°41' E 011°52'0 0.0
2018-Feb-22 12:28N 57°41' E 011°52'0 0.0
2018-Feb-22 11:58N 57°41' E 011°52'0 0.0
2018-Feb-22 11:28N 57°41' E 011°52'0 0.0
2018-Feb-22 10:58N 57°41' E 011°52'0 0.0
2018-Feb-22 10:28N 57°41' E 011°52'0 0.0
2018-Feb-22 09:58N 57°41' E 011°52'0 0.0
2018-Feb-22 09:28N 57°41' E 011°52'0 0.0
2018-Feb-22 08:58N 57°41' E 011°52'0 0.0
2018-Feb-22 08:28N 57°41' E 011°52'0 0.0
2018-Feb-22 07:58N 57°41' E 011°52'0 0.0
2018-Feb-22 07:28N 57°41' E 011°52'0 0.0
2018-Feb-22 06:58N 57°41' E 011°52'0 0.0
2018-Feb-22 06:28N 57°41' E 011°52'0 0.0
2018-Feb-22 05:58N 57°41' E 011°52'0 0.0
2018-Feb-22 05:28N 57°41' E 011°52'0 0.1
2018-Feb-22 05:00N 57°41' E 011°52'4 8.1
2018-Feb-22 04:31N 57°39' E 011°45'612.1
2018-Feb-22 04:00N 57°37' E 011°35'510.4
2018-Feb-22 03:30N 57°39' E 011°26'510.8
2018-Feb-22 03:00N 57°42' E 011°18'510.8
2018-Feb-22 02:30N 57°45' E 011°10'611.1
2018-Feb-22 02:00N 57°49' E 011°01'611.1
2018-Feb-22 01:30N 57°52' E 010°53'510.9
2018-Feb-22 01:01N 57°54' E 010°44'611.1
2018-Feb-22 00:28N 57°55' E 010°33'611.5
2018-Feb-21 23:58N 57°54' E 010°22'16211.3
2018-Feb-21 09:39N 56°06' E 006°42'312.1
2018-Feb-21 09:24N 56°03' E 006°40'512.1
2018-Feb-21 09:00N 55°59' E 006°35'612.1
2018-Feb-21 08:29N 55°53' E 006°30'612.1
2018-Feb-21 07:58N 55°48' E 006°25'512.0
2018-Feb-21 07:31N 55°43' E 006°19'612.0
2018-Feb-21 07:00N 55°38' E 006°13'612.2
2018-Feb-21 06:29N 55°33' E 006°07'612.1
2018-Feb-21 06:00N 55°28' E 006°02'612.0
2018-Feb-21 05:29N 55°23' E 005°56'612.1
2018-Feb-21 05:00N 55°18' E 005°51'612.1
2018-Feb-21 04:28N 55°12' E 005°45'612.1
2018-Feb-21 03:58N 55°07' E 005°40'612.0
2018-Feb-21 03:29N 55°02' E 005°34'612.0
2018-Feb-21 03:01N 54°57' E 005°29'712.0
2018-Feb-21 02:28N 54°51' E 005°23'612.0
2018-Feb-21 02:00N 54°47' E 005°18'612.0
2018-Feb-21 01:29N 54°41' E 005°13'612.0
2018-Feb-21 01:00N 54°36' E 005°08'611.8
2018-Feb-21 00:30N 54°31' E 005°03'1412.0
2018-Feb-20 23:23N 54°20' E 004°51'511.8
2018-Feb-20 22:58N 54°16' E 004°47'16011.8
2018-Feb-20 09:22N 52°11' E 001°57'412.0
2018-Feb-20 09:00N 52°08' E 001°53'611.5
2018-Feb-20 08:30N 52°05' E 001°45'612.7
2018-Feb-20 08:00N 52°01' E 001°37'612.3
2018-Feb-20 07:31N 51°56' E 001°30'510.8
2018-Feb-20 07:00N 51°56' E 001°21'3 6.3
2018-Feb-20 06:29N 51°58' E 001°17'0 0.0
2018-Feb-20 05:59N 51°58' E 001°17'0 0.0
2018-Feb-20 05:29N 51°58' E 001°17'0 0.0
2018-Feb-20 04:59N 51°58' E 001°17'0 0.0
2018-Feb-20 04:29N 51°58' E 001°17'0 0.0
2018-Feb-20 03:59N 51°58' E 001°17'0 0.0
2018-Feb-20 03:29N 51°58' E 001°17'0 0.0
2018-Feb-20 02:59N 51°58' E 001°17'0 0.0
2018-Feb-20 02:29N 51°58' E 001°17'0 0.0
2018-Feb-20 01:59N 51°58' E 001°17'0 0.0
2018-Feb-20 01:29N 51°58' E 001°17'0 0.0
2018-Feb-20 00:59N 51°58' E 001°17'0 0.0
2018-Feb-20 00:29N 51°58' E 001°17'0 0.0
2018-Feb-19 23:59N 51°58' E 001°17'0 0.0
2018-Feb-19 23:29N 51°58' E 001°17'0 0.0
2018-Feb-19 22:59N 51°58' E 001°17'0 0.0
2018-Feb-19 22:29N 51°58' E 001°17'0 0.0
2018-Feb-19 21:59N 51°58' E 001°17'0 0.0
2018-Feb-19 21:29N 51°58' E 001°17'0 0.0
2018-Feb-19 20:59N 51°58' E 001°17'0 0.0
2018-Feb-19 20:29N 51°58' E 001°17'0 0.0
2018-Feb-19 19:59N 51°58' E 001°17'0 0.0
2018-Feb-19 19:29N 51°58' E 001°17'0 0.0
2018-Feb-19 18:59N 51°58' E 001°17'0 0.0
2018-Feb-19 18:29N 51°58' E 001°17'0 0.0
2018-Feb-19 17:59N 51°58' E 001°17'0 0.0
2018-Feb-19 17:29N 51°58' E 001°17'0 0.0
2018-Feb-19 16:59N 51°58' E 001°17'0 0.0
2018-Feb-19 16:29N 51°58' E 001°17'0 0.0
2018-Feb-19 15:59N 51°58' E 001°17'0 0.0
2018-Feb-19 15:29N 51°58' E 001°17'0 0.0
2018-Feb-19 14:59N 51°58' E 001°17'0 0.0
2018-Feb-19 14:29N 51°58' E 001°17'0 0.0
2018-Feb-19 13:59N 51°58' E 001°17'0 0.0
2018-Feb-19 13:29N 51°58' E 001°17'0 0.0
2018-Feb-19 12:59N 51°58' E 001°17'0 0.0
2018-Feb-19 12:29N 51°58' E 001°17'0 0.0
2018-Feb-19 11:59N 51°58' E 001°17'0 0.0
2018-Feb-19 11:29N 51°58' E 001°17'0 0.0
2018-Feb-19 10:59N 51°58' E 001°17'0 0.0
2018-Feb-19 10:29N 51°58' E 001°17'0 0.0
2018-Feb-19 09:59N 51°58' E 001°17'0 0.0
2018-Feb-19 09:29N 51°58' E 001°17'0 0.0
2018-Feb-19 08:59N 51°58' E 001°17'0 0.0
2018-Feb-19 08:29N 51°58' E 001°17'0 0.0
2018-Feb-19 07:59N 51°58' E 001°17'0 0.0
2018-Feb-19 07:29N 51°58' E 001°17'0 0.0
2018-Feb-19 06:59N 51°58' E 001°17'0 0.0
2018-Feb-19 06:29N 51°58' E 001°17'0 0.0
2018-Feb-19 05:59N 51°58' E 001°17'0 0.0
2018-Feb-19 05:29N 51°58' E 001°17'0 0.0
2018-Feb-19 04:59N 51°58' E 001°17'0 0.0
2018-Feb-19 04:29N 51°58' E 001°17'0 0.0
2018-Feb-19 03:59N 51°58' E 001°17'0 0.0
2018-Feb-19 03:29N 51°58' E 001°17'0 0.0
2018-Feb-19 02:59N 51°58' E 001°17'0 0.0
2018-Feb-19 02:29N 51°58' E 001°17'0 0.0
2018-Feb-19 01:59N 51°58' E 001°17'0 0.0
2018-Feb-19 01:29N 51°58' E 001°17'0 0.0
2018-Feb-19 00:59N 51°58' E 001°17'0 0.0
2018-Feb-19 00:29N 51°58' E 001°17'0 0.0
2018-Feb-18 23:59N 51°58' E 001°17'0 0.0
2018-Feb-18 23:29N 51°58' E 001°17'0 0.0
2018-Feb-18 22:59N 51°58' E 001°17'0 0.0
2018-Feb-18 22:29N 51°58' E 001°17'0 0.0
2018-Feb-18 21:59N 51°58' E 001°17'0 0.0
2018-Feb-18 21:29N 51°58' E 001°17'0 0.0
2018-Feb-18 20:59N 51°58' E 001°17'0 0.0
2018-Feb-18 20:29N 51°58' E 001°17'0 0.0
2018-Feb-18 19:59N 51°58' E 001°17'0 0.0
2018-Feb-18 19:29N 51°58' E 001°17'0 0.0
2018-Feb-18 18:59N 51°58' E 001°17'0 0.1
2018-Feb-18 18:30N 51°58' E 001°17'1 2.6
2018-Feb-18 18:00N 51°57' E 001°19'4 9.0
2018-Feb-18 17:31N 51°56' E 001°26'611.7
2018-Feb-18 17:00N 51°59' E 001°34'713.8
2018-Feb-18 16:30N 52°04' E 001°42'611.1
2018-Feb-18 16:00N 52°08' E 001°48'611.2
2018-Feb-18 15:30N 52°11' E 001°55'26012.7
2018-Feb-17 19:03N 55°39' E 006°21'113.1
2018-Feb-17 18:58N 55°40' E 006°23'713.4
2018-Feb-17 18:29N 55°46' E 006°29'613.4
2018-Feb-17 18:00N 55°51' E 006°36'713.4
2018-Feb-17 17:30N 55°56' E 006°42'15813.3
2018-Feb-17 05:36N 57°45' E 010°13'112.5
2018-Feb-17 05:30N 57°46' E 010°15'612.8
2018-Feb-17 05:00N 57°47' E 010°27'612.9
2018-Feb-17 04:30N 57°48' E 010°39'612.2
2018-Feb-17 04:00N 57°48' E 010°50'713.1
2018-Feb-17 03:30N 57°43' E 010°59'713.6
2018-Feb-17 03:01N 57°39' E 011°08'713.4
2018-Feb-17 02:31N 57°34' E 011°17'714.6
2018-Feb-17 02:01N 57°29' E 011°27'713.8
2018-Feb-17 01:30N 57°24' E 011°36'713.5
2018-Feb-17 01:00N 57°19' E 011°45'713.4
2018-Feb-17 00:30N 57°14' E 011°52'713.5
2018-Feb-17 00:00N 57°08' E 011°57'4113.5
2018-Feb-16 21:00N 56°29' E 012°19'1213.4
2018-Feb-16 20:07N 56°17' E 012°23'112.4
2018-Feb-16 20:00N 56°16' E 012°24'612.9
2018-Feb-16 19:30N 56°10' E 012°28'612.2
2018-Feb-16 19:00N 56°06' E 012°36'510.0
2018-Feb-16 18:30N 56°01' E 012°40'1 1.5
2018-Feb-16 18:00N 56°02' E 012°42'0 0.0
2018-Feb-16 17:30N 56°02' E 012°42'0 0.0
2018-Feb-16 17:00N 56°02' E 012°42'0 0.0
2018-Feb-16 16:30N 56°02' E 012°42'0 0.0
2018-Feb-16 16:00N 56°02' E 012°42'0 0.0
2018-Feb-16 15:30N 56°02' E 012°42'0 0.0
2018-Feb-16 15:00N 56°02' E 012°42'0 0.0
2018-Feb-16 14:30N 56°02' E 012°42'0 0.0
2018-Feb-16 14:00N 56°02' E 012°42'0 0.0
2018-Feb-16 13:30N 56°02' E 012°42'0 0.0
2018-Feb-16 13:00N 56°02' E 012°42'0 0.0
2018-Feb-16 12:30N 56°02' E 012°42'0 0.0
2018-Feb-16 12:00N 56°02' E 012°42'0 0.0
2018-Feb-16 11:30N 56°02' E 012°42'0 0.0
2018-Feb-16 11:00N 56°02' E 012°42'0 0.0
2018-Feb-16 10:30N 56°02' E 012°42'0 0.0
2018-Feb-16 10:00N 56°02' E 012°42'0 0.0
2018-Feb-16 09:30N 56°02' E 012°42'0 0.0
2018-Feb-16 09:00N 56°02' E 012°42'0 0.0
2018-Feb-16 08:30N 56°02' E 012°42'0 0.0
2018-Feb-16 08:00N 56°02' E 012°42'0 0.0
2018-Feb-16 07:30N 56°02' E 012°42'2 4.7
2018-Feb-16 07:00N 55°59' E 012°42'2 3.1
2018-Feb-16 06:30N 55°58' E 012°44'0 0.1
2018-Feb-16 06:00N 55°58' E 012°44'0 0.1
2018-Feb-16 05:30N 55°58' E 012°44'0 0.0
2018-Feb-16 05:00N 55°58' E 012°44'0 0.1
2018-Feb-16 04:30N 55°58' E 012°44'0 0.0
2018-Feb-16 03:57N 55°58' E 012°44'0 0.3
2018-Feb-16 03:30N 55°58' E 012°44'2 3.8
2018-Feb-16 03:01N 55°56' E 012°44'715.0
2018-Feb-16 02:31N 55°49' E 012°43'714.1
2018-Feb-16 02:00N 55°42' E 012°41'5 9.1
2018-Feb-16 01:30N 55°37' E 012°42'4 8.7
2018-Feb-16 01:00N 55°33' E 012°43'4 8.6
2018-Feb-16 00:30N 55°29' E 012°42'611.0
2018-Feb-16 00:00N 55°23' E 012°41'510.0
2018-Feb-15 23:30N 55°18' E 012°43'510.9
2018-Feb-15 23:00N 55°16' E 012°52'510.2
2018-Feb-15 22:30N 55°16' E 013°01'13 9.9
2018-Feb-15 21:14N 55°15' E 013°23'410.2
2018-Feb-15 20:52N 55°15' E 013°29'1710.0
2018-Feb-15 19:11N 55°14' E 013°59'210.3
2018-Feb-15 18:59N 55°14' E 014°02'610.3
2018-Feb-15 18:21N 55°14' E 014°14'5 9.4
2018-Feb-15 17:47N 55°17' E 014°21'310.0
2018-Feb-15 17:29N 55°20' E 014°24'510.2
2018-Feb-15 17:00N 55°23' E 014°30'610.7
2018-Feb-15 16:28N 55°27' E 014°38'511.1
2018-Feb-15 15:58N 55°30' E 014°46'511.0
2018-Feb-15 15:30N 55°32' E 014°54'510.9
2018-Feb-15 15:00N 55°35' E 015°02'510.8
2018-Feb-15 14:30N 55°38' E 015°10'510.8
2018-Feb-15 14:00N 55°40' E 015°19'510.9
2018-Feb-15 13:30N 55°43' E 015°27'611.1
2018-Feb-15 13:00N 55°46' E 015°35'611.1
2018-Feb-15 12:30N 55°49' E 015°44'611.1
2018-Feb-15 12:00N 55°51' E 015°53'611.0
2018-Feb-15 11:30N 55°54' E 016°01'611.6
2018-Feb-15 11:00N 55°57' E 016°10'611.8
2018-Feb-15 10:30N 56°00' E 016°19'611.7
2018-Feb-15 10:00N 56°03' E 016°28'611.7
2018-Feb-15 09:30N 56°06' E 016°37'611.7
2018-Feb-15 09:00N 56°10' E 016°45'611.5
2018-Feb-15 08:30N 56°15' E 016°49'611.7
2018-Feb-15 08:00N 56°21' E 016°53'22112.3
2018-Feb-14 14:00N 59°40' E 019°52'817.0
2018-Feb-14 13:30N 59°46' E 019°41'916.8
2018-Feb-14 12:59N 59°53' E 019°30'816.8
2018-Feb-14 12:30N 59°59' E 019°20'816.6
2018-Feb-14 12:00N 60°06' E 019°09'815.2
2018-Feb-14 11:30N 60°12' E 019°01'612.2
2018-Feb-14 11:00N 60°18' E 019°00'612.2
2018-Feb-14 10:30N 60°24' E 018°59'612.3
2018-Feb-14 10:00N 60°30' E 018°57'612.3
2018-Feb-14 09:30N 60°35' E 018°48'612.2
2018-Feb-14 08:59N 60°40' E 018°39'  

Dump ship's entire track history